Time;durP1;ratioP1;P1;durP2;ratioP2;P2;SDS_P1;SDS_P2;PMS_P1;PMS_P2;Temp;Humidity;BMP_temperature;BMP_pressure;BME280_temperature;BME280_humidity;BME280_pressure;Samples;Min_cycle;Max_cycle;Signal;HPM_P1;HPM_P2
2022/03/31 00:00:49;;;;;;;168.07;70.78;;;11.70;99.90;;;;;;5097856;28;20016;-64
2022/03/31 00:03:18;;;;;;;197.82;82.85;;;11.60;99.90;;;;;;5098081;28;20054;-64
2022/03/31 00:05:45;;;;;;;206.38;84.13;;;11.60;99.90;;;;;;5097905;28;20081;-64
2022/03/31 00:08:13;;;;;;;234.05;92.57;;;11.60;99.90;;;;;;5097725;28;20027;-64
2022/03/31 00:10:49;;;;;;;192.45;79.43;;;11.60;99.90;;;;;;5097763;28;20030;-64
2022/03/31 00:13:21;;;;;;;191.82;78.55;;;11.60;99.90;;;;;;5097586;28;20050;-64
2022/03/31 00:15:47;;;;;;;179.07;73.18;;;11.60;99.90;;;;;;5097980;28;20358;-64
2022/03/31 00:18:15;;;;;;;186.85;76.47;;;11.60;99.90;;;;;;5097318;28;20377;-64
2022/03/31 00:20:41;;;;;;;185.85;74.30;;;11.60;99.90;;;;;;5097838;28;20020;-64
2022/03/31 00:23:08;;;;;;;158.93;65.97;;;11.60;99.90;;;;;;5097461;28;20066;-64
2022/03/31 00:25:34;;;;;;;169.98;71.32;;;11.60;99.90;;;;;;5097384;28;20073;-64
2022/03/31 00:28:03;;;;;;;191.05;74.20;;;11.60;99.90;;;;;;5097481;28;20028;-64
2022/03/31 00:30:31;;;;;;;181.82;71.20;;;11.60;99.90;;;;;;5097112;28;20035;-64
2022/03/31 00:32:57;;;;;;;137.27;57.50;;;11.60;99.90;;;;;;5097264;28;20389;-64
2022/03/31 00:35:23;;;;;;;125.03;54.03;;;11.60;99.90;;;;;;5097383;28;20069;-64
2022/03/31 00:37:49;;;;;;;137.18;56.67;;;11.50;99.90;;;;;;5097195;28;20032;-64
2022/03/31 00:40:18;;;;;;;130.00;56.40;;;11.50;99.90;;;;;;5097188;28;20020;-64
2022/03/31 00:42:49;;;;;;;123.13;51.40;;;11.50;99.90;;;;;;5097008;28;20026;-64
2022/03/31 00:45:26;;;;;;;119.38;52.28;;;11.50;99.90;;;;;;5096835;28;20028;-64
2022/03/31 00:47:53;;;;;;;95.15;44.75;;;11.50;99.90;;;;;;5097145;28;20034;-64
2022/03/31 00:50:22;;;;;;;109.07;46.97;;;11.50;99.90;;;;;;5097225;28;20110;-64
2022/03/31 00:52:48;;;;;;;123.10;50.03;;;11.50;99.90;;;;;;5096858;28;20532;-64
2022/03/31 00:55:18;;;;;;;116.88;49.67;;;11.50;99.90;;;;;;5096858;28;20094;-64
2022/03/31 00:57:45;;;;;;;110.35;47.10;;;11.50;99.90;;;;;;5096446;28;20028;-64
2022/03/31 01:00:14;;;;;;;109.93;45.95;;;11.50;99.90;;;;;;5096785;28;20028;-64
2022/03/31 01:02:43;;;;;;;124.28;48.92;;;11.40;99.90;;;;;;5096880;28;20074;-64
2022/03/31 01:05:10;;;;;;;107.35;45.10;;;11.30;99.90;;;;;;5096584;28;20036;-65
2022/03/31 01:07:37;;;;;;;109.50;47.47;;;11.30;99.90;;;;;;5096572;28;20035;-65
2022/03/31 01:10:05;;;;;;;125.25;53.00;;;11.30;99.90;;;;;;5097011;28;20020;-65
2022/03/31 01:12:32;;;;;;;134.85;56.38;;;11.30;99.90;;;;;;5096482;28;20027;-65
2022/03/31 01:15:09;;;;;;;118.78;49.22;;;11.20;99.90;;;;;;5096521;28;20127;-65
2022/03/31 01:17:37;;;;;;;114.38;48.85;;;11.20;99.90;;;;;;5076303;28;20024;-65
2022/03/31 01:20:05;;;;;;;107.68;42.95;;;11.20;99.90;;;;;;5087202;28;20032;-65
2022/03/31 01:22:32;;;;;;;103.45;40.75;;;11.10;99.90;;;;;;5096381;28;20111;-65
2022/03/31 01:24:59;;;;;;;92.38;38.78;;;11.10;99.90;;;;;;5096360;28;20035;-65
2022/03/31 01:27:26;;;;;;;119.65;46.67;;;11.10;99.90;;;;;;5096238;28;20036;-65
2022/03/31 01:29:53;;;;;;;110.25;40.33;;;11.10;99.90;;;;;;5096164;28;20039;-65
2022/03/31 01:32:19;;;;;;;76.20;29.40;;;11.00;99.90;;;;;;5096288;28;20028;-65
2022/03/31 01:34:46;;;;;;;116.85;38.55;;;11.00;99.90;;;;;;5096064;28;20101;-65
2022/03/31 01:37:13;;;;;;;84.20;32.55;;;10.90;99.90;;;;;;5096044;28;20038;-65
2022/03/31 01:39:39;;;;;;;96.57;37.45;;;10.90;99.90;;;;;;5096106;28;20024;-65
2022/03/31 01:42:06;;;;;;;78.22;32.95;;;10.90;99.90;;;;;;5095813;28;20056;-65
2022/03/31 01:44:32;;;;;;;85.10;35.33;;;10.90;99.90;;;;;;5095986;28;20036;-65
2022/03/31 01:46:58;;;;;;;73.95;31.20;;;10.80;99.90;;;;;;5095812;28;20031;-65
2022/03/31 01:49:24;;;;;;;75.28;30.08;;;10.90;99.90;;;;;;5096019;28;20373;-65
2022/03/31 01:51:50;;;;;;;80.07;32.75;;;10.80;99.90;;;;;;5095978;28;20031;-65
2022/03/31 01:54:17;;;;;;;75.05;33.20;;;10.80;99.90;;;;;;5095606;28;20047;-65
2022/03/31 01:56:44;;;;;;;74.70;29.60;;;10.80;99.90;;;;;;5095673;28;20042;-65
2022/03/31 01:59:11;;;;;;;68.25;31.88;;;10.70;99.90;;;;;;5095687;28;20358;-65
2022/03/31 02:01:37;;;;;;;90.25;39.50;;;10.80;99.90;;;;;;5095598;28;20073;-65
2022/03/31 02:04:03;;;;;;;116.13;47.17;;;10.80;99.90;;;;;;5095706;28;20040;-65
2022/03/31 02:06:30;;;;;;;94.40;42.17;;;10.80;99.90;;;;;;5095341;28;20504;-65
2022/03/31 02:08:56;;;;;;;86.03;37.30;;;10.80;99.90;;;;;;5095013;28;20028;-65
2022/03/31 02:11:23;;;;;;;86.20;36.10;;;10.80;99.90;;;;;;5095455;28;20027;-65
2022/03/31 02:13:49;;;;;;;72.07;32.50;;;10.80;99.90;;;;;;5095338;28;20419;-65
2022/03/31 02:16:15;;;;;;;75.65;31.88;;;10.80;99.90;;;;;;5095262;28;20035;-65
2022/03/31 02:18:41;;;;;;;122.28;45.80;;;10.80;99.90;;;;;;5095195;28;20028;-65
2022/03/31 02:21:07;;;;;;;132.82;49.17;;;10.70;99.90;;;;;;5095116;28;20537;-65
2022/03/31 02:23:33;;;;;;;101.38;38.20;;;10.70;99.90;;;;;;5095183;28;20048;-65
2022/03/31 02:25:59;;;;;;;72.07;32.13;;;10.70;99.90;;;;;;5095151;28;20100;-65
2022/03/31 02:28:25;;;;;;;71.45;31.40;;;10.70;99.90;;;;;;5095130;28;20028;-65
2022/03/31 02:30:51;;;;;;;59.45;28.60;;;10.70;99.90;;;;;;5095326;28;20020;-65
2022/03/31 02:33:17;;;;;;;55.38;26.17;;;10.70;99.90;;;;;;5094997;28;20031;-65
2022/03/31 02:35:43;;;;;;;42.63;20.15;;;10.70;99.90;;;;;;5094953;28;20024;-65
2022/03/31 02:38:09;;;;;;;44.22;19.60;;;10.70;99.90;;;;;;5095025;28;20030;-65
2022/03/31 02:40:35;;;;;;;41.47;19.55;;;10.70;99.90;;;;;;5095003;28;20028;-65
2022/03/31 02:43:01;;;;;;;42.08;18.95;;;10.50;99.90;;;;;;5094753;28;20020;-65
2022/03/31 02:45:27;;;;;;;40.80;20.60;;;10.50;99.90;;;;;;5094912;28;20123;-65
2022/03/31 02:47:53;;;;;;;38.22;19.48;;;10.50;99.90;;;;;;5094839;28;20060;-65
2022/03/31 02:50:19;;;;;;;47.90;20.25;;;10.50;99.90;;;;;;5094864;28;20026;-65
2022/03/31 02:55:31;;;;;;;25.27;12.75;;;10.40;99.90;;;;;;5094714;28;20143;-65
2022/03/31 02:58:01;;;;;;;25.02;11.00;;;10.40;99.90;;;;;;5094710;28;20035;-66
2022/03/31 03:00:32;;;;;;;22.45;11.10;;;10.40;99.90;;;;;;5094729;28;20039;-65
2022/03/31 03:02:59;;;;;;;26.55;11.55;;;10.20;99.90;;;;;;5094871;28;20031;-65
2022/03/31 03:05:26;;;;;;;27.15;11.88;;;10.20;99.90;;;;;;5094539;28;20040;-65
2022/03/31 03:07:52;;;;;;;44.28;19.38;;;10.10;99.90;;;;;;5094581;28;20035;-65
2022/03/31 03:10:18;;;;;;;43.65;18.92;;;10.10;99.90;;;;;;5094616;28;20024;-65
2022/03/31 03:12:44;;;;;;;41.88;19.17;;;10.10;99.90;;;;;;5094536;28;20078;-65
2022/03/31 03:15:11;;;;;;;57.13;24.17;;;10.10;99.90;;;;;;5094141;28;20063;-65
2022/03/31 03:17:46;;;;;;;41.15;18.92;;;10.10;99.90;;;;;;5094665;28;20036;-65
2022/03/31 03:20:14;;;;;;;45.67;18.23;;;10.00;99.90;;;;;;5095477;28;20389;-65
2022/03/31 03:22:50;;;;;;;38.00;16.80;;;10.00;99.90;;;;;;5098584;28;20377;-65
2022/03/31 03:25:20;;;;;;;37.53;15.38;;;10.00;99.90;;;;;;5098665;28;20036;-65
2022/03/31 03:27:49;;;;;;;31.83;14.75;;;10.00;99.90;;;;;;5098497;28;20032;-65
2022/03/31 03:30:18;;;;;;;52.85;24.30;;;10.00;99.90;;;;;;5098449;28;20020;-65
2022/03/31 03:32:45;;;;;;;48.63;21.33;;;10.00;99.90;;;;;;5098598;28;20035;-65
2022/03/31 03:35:13;;;;;;;31.45;15.63;;;10.10;99.90;;;;;;5098374;28;20028;-66
2022/03/31 03:37:41;;;;;;;28.80;15.73;;;10.10;99.90;;;;;;5098473;28;20034;-65
2022/03/31 03:40:10;;;;;;;38.78;17.92;;;10.20;99.90;;;;;;5098500;28;20113;-65
2022/03/31 03:42:38;;;;;;;54.88;23.10;;;10.20;99.90;;;;;;5098264;28;20038;-66
2022/03/31 03:45:05;;;;;;;42.78;17.52;;;10.20;99.90;;;;;;5098329;28;20020;-65
2022/03/31 03:47:32;;;;;;;33.70;15.05;;;10.10;99.90;;;;;;5098348;28;20659;-65
2022/03/31 03:49:58;;;;;;;24.83;13.18;;;10.10;99.90;;;;;;5098086;28;20527;-65
2022/03/31 03:52:24;;;;;;;28.92;14.20;;;10.10;99.90;;;;;;5098245;28;20017;-65
2022/03/31 03:54:51;;;;;;;33.55;17.08;;;10.10;99.90;;;;;;5097989;28;20032;-65
2022/03/31 03:57:17;;;;;;;45.28;21.05;;;10.10;99.90;;;;;;5098155;28;20031;-65
2022/03/31 03:59:43;;;;;;;41.72;20.90;;;10.10;99.90;;;;;;5098017;28;20046;-65
2022/03/31 04:02:09;;;;;;;38.40;20.67;;;10.10;99.90;;;;;;5098055;28;20039;-65
2022/03/31 04:04:35;;;;;;;36.13;21.45;;;10.10;99.90;;;;;;5096473;28;20036;-65
2022/03/31 04:07:02;;;;;;;38.15;22.25;;;10.10;99.90;;;;;;5097848;28;20035;-65
2022/03/31 04:09:28;;;;;;;38.90;22.38;;;10.10;99.90;;;;;;5097652;28;20073;-65
2022/03/31 04:11:54;;;;;;;33.15;18.60;;;10.20;99.90;;;;;;5097723;28;20020;-65
2022/03/31 04:14:21;;;;;;;29.50;15.32;;;10.20;99.90;;;;;;5097600;28;20093;-65
2022/03/31 04:16:48;;;;;;;38.38;20.92;;;10.30;99.90;;;;;;5097552;28;20036;-65
2022/03/31 04:19:14;;;;;;;40.63;21.40;;;10.30;99.90;;;;;;5097474;28;20032;-65
2022/03/31 04:21:40;;;;;;;35.33;20.45;;;10.20;99.90;;;;;;5097588;28;20024;-65
2022/03/31 04:24:06;;;;;;;35.75;20.25;;;10.10;99.90;;;;;;5097377;28;20044;-65
2022/03/31 04:26:33;;;;;;;39.47;21.58;;;10.00;99.90;;;;;;5097473;28;20535;-65
2022/03/31 04:29:01;;;;;;;50.45;24.75;;;10.00;99.90;;;;;;5097790;28;20025;-65
2022/03/31 04:31:28;;;;;;;60.17;29.42;;;9.90;99.90;;;;;;5096529;28;20481;-65
2022/03/31 04:33:54;;;;;;;49.42;23.83;;;10.00;99.90;;;;;;5097448;28;20052;-65
2022/03/31 04:36:20;;;;;;;41.92;23.60;;;10.00;99.90;;;;;;5097384;28;20109;-65
2022/03/31 04:38:46;;;;;;;55.22;28.15;;;10.00;99.90;;;;;;5097235;28;20063;-65
2022/03/31 04:41:12;;;;;;;50.47;26.45;;;10.00;99.90;;;;;;5097317;28;20040;-65
2022/03/31 04:43:39;;;;;;;44.17;22.23;;;10.00;99.90;;;;;;5097253;28;20032;-65
2022/03/31 04:46:05;;;;;;;50.40;27.20;;;9.90;99.90;;;;;;5097119;28;20496;-65
2022/03/31 04:48:34;;;;;;;130.38;54.30;;;9.90;99.90;;;;;;5097236;28;20073;-65
2022/03/31 04:51:00;;;;;;;98.13;42.65;;;9.90;99.90;;;;;;5097043;28;20070;-65
2022/03/31 04:53:26;;;;;;;151.32;61.05;;;9.90;99.90;;;;;;5096844;28;20024;-65
2022/03/31 04:55:52;;;;;;;118.32;47.10;;;10.00;99.90;;;;;;5096900;28;20040;-65
2022/03/31 04:58:18;;;;;;;115.60;47.88;;;9.90;99.90;;;;;;5096853;28;20071;-65
2022/03/31 05:00:44;;;;;;;181.15;64.65;;;10.00;99.90;;;;;;5096697;28;20028;-65
2022/03/31 05:03:10;;;;;;;195.68;67.35;;;10.00;99.90;;;;;;5096730;28;20377;-65
2022/03/31 05:05:36;;;;;;;260.70;87.45;;;10.00;99.90;;;;;;5096514;28;20032;-65
2022/03/31 05:08:03;;;;;;;169.80;60.30;;;10.10;99.90;;;;;;5096646;28;20059;-65
2022/03/31 05:10:29;;;;;;;130.13;47.80;;;10.10;99.90;;;;;;5093069;28;20025;-65
2022/03/31 05:12:55;;;;;;;104.93;42.22;;;10.10;99.90;;;;;;5093824;28;20028;-65
2022/03/31 05:15:21;;;;;;;98.35;41.03;;;10.10;99.90;;;;;;5095751;28;20044;-65
2022/03/31 05:17:47;;;;;;;85.20;44.35;;;10.10;99.90;;;;;;5095542;28;20393;-65
2022/03/31 05:20:13;;;;;;;98.82;53.63;;;10.10;99.90;;;;;;5082441;28;20036;-65
2022/03/31 05:22:40;;;;;;;103.30;51.78;;;10.10;99.90;;;;;;5087977;28;20111;-65
2022/03/31 05:25:08;;;;;;;101.20;52.22;;;10.10;99.90;;;;;;5095929;28;20764;-65
2022/03/31 05:27:43;;;;;;;167.00;84.05;;;10.10;99.90;;;;;;5079326;28;20051;-65
2022/03/31 05:30:11;;;;;;;142.43;58.63;;;10.10;99.90;;;;;;5089406;28;20050;-65
2022/03/31 05:32:37;;;;;;;118.32;51.60;;;10.20;99.90;;;;;;5084737;28;20031;-65
2022/03/31 05:35:04;;;;;;;149.27;61.67;;;10.30;99.90;;;;;;5088490;28;20024;-65
2022/03/31 05:37:30;;;;;;;142.73;59.25;;;10.40;99.90;;;;;;5090876;28;20052;-65
2022/03/31 05:39:56;;;;;;;102.30;51.88;;;10.60;99.90;;;;;;5089198;28;20468;-65
2022/03/31 05:42:23;;;;;;;98.97;47.13;;;10.60;99.90;;;;;;5091847;28;20023;-65
2022/03/31 05:44:49;;;;;;;120.57;49.38;;;10.70;99.90;;;;;;5088136;28;20070;-65
2022/03/31 05:47:15;;;;;;;130.55;50.03;;;10.70;99.90;;;;;;5091303;28;20052;-65
2022/03/31 05:49:41;;;;;;;144.20;52.03;;;10.70;99.90;;;;;;5086875;28;20024;-65
2022/03/31 05:52:08;;;;;;;131.80;55.10;;;10.70;99.90;;;;;;5085421;28;20050;-65
2022/03/31 05:54:34;;;;;;;113.45;57.30;;;10.80;99.90;;;;;;5091586;28;20435;-65
2022/03/31 05:57:00;;;;;;;106.03;54.90;;;10.70;99.90;;;;;;5095453;28;20103;-65
2022/03/31 05:59:26;;;;;;;109.35;54.83;;;10.70;99.90;;;;;;5093138;28;20032;-67
2022/03/31 06:01:52;;;;;;;122.93;55.95;;;10.80;99.90;;;;;;5086062;28;20032;-67
2022/03/31 06:04:21;;;;;;;121.05;55.13;;;10.90;99.90;;;;;;5086861;28;20027;-67
2022/03/31 06:06:48;;;;;;;106.70;55.92;;;11.00;99.90;;;;;;5084926;28;20023;-67
2022/03/31 06:09:14;;;;;;;112.93;57.90;;;11.10;99.90;;;;;;5085423;28;20027;-67
2022/03/31 06:11:42;;;;;;;135.40;62.92;;;11.10;99.90;;;;;;5090268;28;20041;-67
2022/03/31 06:14:09;;;;;;;103.22;55.60;;;11.30;99.90;;;;;;5095721;28;20443;-64
2022/03/31 06:16:35;;;;;;;103.03;55.42;;;11.30;99.90;;;;;;5082183;28;20032;-64
2022/03/31 06:19:01;;;;;;;103.15;57.88;;;11.40;99.90;;;;;;5081713;28;20079;-65
2022/03/31 06:21:28;;;;;;;113.82;62.70;;;11.50;99.90;;;;;;5085848;28;20027;-64
2022/03/31 06:23:54;;;;;;;142.73;65.05;;;11.70;99.90;;;;;;5087701;28;20469;-64
2022/03/31 06:26:20;;;;;;;149.05;67.38;;;11.70;99.90;;;;;;5078903;28;20016;-64
2022/03/31 06:28:47;;;;;;;123.88;66.38;;;11.80;99.90;;;;;;5090335;28;20112;-64
2022/03/31 06:31:13;;;;;;;142.60;77.15;;;11.90;99.90;;;;;;5087937;28;20024;-65
2022/03/31 06:33:39;;;;;;;137.43;73.65;;;12.10;99.90;;;;;;5085172;28;20035;-64
2022/03/31 06:36:05;;;;;;;112.00;67.63;;;12.10;99.90;;;;;;5082917;28;20028;-65
2022/03/31 06:38:31;;;;;;;118.20;69.03;;;12.10;99.90;;;;;;5086223;28;20374;-65
2022/03/31 06:41:06;;;;;;;124.57;70.78;;;12.10;99.90;;;;;;5075602;28;20039;-65
2022/03/31 06:43:39;;;;;;;108.32;65.80;;;12.30;99.90;;;;;;5085732;28;20020;-65
2022/03/31 06:46:06;;;;;;;109.50;65.05;;;12.50;99.90;;;;;;5079146;28;20024;-65
2022/03/31 06:48:32;;;;;;;105.95;64.13;;;12.60;99.90;;;;;;5089403;28;20058;-65
2022/03/31 06:50:59;;;;;;;115.30;66.82;;;12.70;99.90;;;;;;5092207;28;20024;-65
2022/03/31 06:53:25;;;;;;;115.38;61.67;;;12.80;99.90;;;;;;5092715;28;20107;-65
2022/03/31 06:55:51;;;;;;;106.38;58.92;;;12.80;99.90;;;;;;5088622;28;20046;-65
2022/03/31 06:58:18;;;;;;;108.13;60.47;;;12.90;99.90;;;;;;5084281;28;20024;-65
2022/03/31 07:00:44;;;;;;;112.35;60.53;;;12.90;99.90;;;;;;5090464;28;20036;-65
2022/03/31 07:03:10;;;;;;;103.65;59.58;;;13.00;99.90;;;;;;5094350;28;20030;-65
2022/03/31 07:05:37;;;;;;;106.18;63.22;;;13.20;99.90;;;;;;5082424;28;20040;-65
2022/03/31 07:08:06;;;;;;;109.15;62.50;;;13.20;99.90;;;;;;5091057;28;20447;-65
2022/03/31 07:10:32;;;;;;;84.80;46.28;;;13.40;99.90;;;;;;5089517;28;20016;-65
2022/03/31 07:13:00;;;;;;;21.05;7.63;;;13.50;99.90;;;;;;5093279;28;20028;-65
2022/03/31 07:15:27;;;;;;;23.73;7.35;;;13.70;99.90;;;;;;5077014;28;20052;-65
2022/03/31 07:17:55;;;;;;;31.92;7.32;;;14.10;99.90;;;;;;5088201;28;20072;-65
2022/03/31 07:20:22;;;;;;;24.88;5.95;;;14.40;99.90;;;;;;5086857;28;20055;-65
2022/03/31 07:22:48;;;;;;;30.25;6.20;;;14.70;99.90;;;;;;5088413;28;20032;-66
2022/03/31 07:25:16;;;;;;;22.80;7.95;;;15.00;99.90;;;;;;5088617;28;20028;-65
2022/03/31 07:27:44;;;;;;;33.90;6.30;;;15.20;99.90;;;;;;5088850;28;20074;-66
2022/03/31 07:30:13;;;;;;;29.00;5.50;;;15.40;99.90;;;;;;5080122;28;20381;-65
2022/03/31 07:32:54;;;;;;;32.83;10.38;;;15.60;99.90;;;;;;5077647;28;20380;-66
2022/03/31 07:35:22;;;;;;;30.45;7.60;;;15.80;99.90;;;;;;5086673;28;20436;-66
2022/03/31 07:37:49;;;;;;;26.25;4.95;;;16.00;99.90;;;;;;5086925;28;20404;-66
2022/03/31 07:40:15;;;;;;;22.90;5.28;;;16.20;99.90;;;;;;5089786;28;20036;-66
2022/03/31 07:42:42;;;;;;;21.75;5.18;;;16.50;99.90;;;;;;5085699;28;20024;-66
2022/03/31 07:45:09;;;;;;;17.38;5.20;;;16.60;99.90;;;;;;5089254;28;20077;-66
2022/03/31 07:47:35;;;;;;;30.27;6.30;;;16.80;99.90;;;;;;5087240;28;20115;-66
2022/03/31 07:50:01;;;;;;;22.85;5.55;;;17.10;99.90;;;;;;5091642;28;20030;-66
2022/03/31 07:52:28;;;;;;;18.55;4.55;;;17.20;99.90;;;;;;5107205;28;20028;-66
2022/03/31 07:54:54;;;;;;;21.60;5.20;;;17.40;99.30;;;;;;5093456;28;20039;-66
2022/03/31 07:57:21;;;;;;;25.55;5.60;;;17.60;99.90;;;;;;5088349;28;20032;-66
2022/03/31 07:59:47;;;;;;;20.00;5.05;;;17.90;98.60;;;;;;5113372;28;20032;-66
2022/03/31 08:02:13;;;;;;;27.75;6.13;;;18.00;99.30;;;;;;5101748;28;20162;-65
2022/03/31 08:04:39;;;;;;;24.40;6.20;;;18.20;98.80;;;;;;5104023;28;20028;-65
2022/03/31 08:07:05;;;;;;;23.77;6.25;;;18.40;98.90;;;;;;5099874;28;20137;-66
2022/03/31 08:09:31;;;;;;;31.35;6.38;;;18.60;99.20;;;;;;5105549;28;20020;-66
2022/03/31 08:11:58;;;;;;;16.13;6.10;;;18.60;96.10;;;;;;5100701;28;20077;-65
2022/03/31 08:14:24;;;;;;;44.47;8.05;;;18.70;97.30;;;;;;5110834;28;20097;-65
2022/03/31 08:16:51;;;;;;;35.38;8.52;;;18.80;98.00;;;;;;5112222;28;20062;-66
2022/03/31 08:19:21;;;;;;;73.90;11.73;;;18.80;97.80;;;;;;5105629;27;20028;-65
2022/03/31 08:21:49;;;;;;;49.17;10.57;;;18.80;99.30;;;;;;5109634;28;20019;-62
2022/03/31 08:24:20;;;;;;;47.08;10.73;;;18.90;97.70;;;;;;5105203;28;20032;-63
2022/03/31 08:26:47;;;;;;;28.80;7.38;;;18.90;97.00;;;;;;5101617;28;20031;-64
2022/03/31 08:29:13;;;;;;;36.30;7.88;;;18.80;94.50;;;;;;5104669;28;20422;-60
2022/03/31 08:31:39;;;;;;;56.53;11.90;;;18.60;96.20;;;;;;5103621;28;20020;-59
2022/03/31 08:34:07;;;;;;;32.17;7.72;;;18.60;97.10;;;;;;5102832;28;20039;-59
2022/03/31 08:36:33;;;;;;;114.68;52.55;;;18.50;95.40;;;;;;5091223;28;20071;-59
2022/03/31 08:39:06;;;;;;;122.38;53.78;;;18.20;99.90;;;;;;5085094;28;20056;-58
2022/03/31 08:41:32;;;;;;;128.00;53.75;;;17.80;99.90;;;;;;5097117;28;20421;-58
2022/03/31 08:43:58;;;;;;;102.85;50.47;;;17.50;99.90;;;;;;5096660;28;20040;-58
2022/03/31 08:46:31;;;;;;;93.57;44.55;;;17.40;99.90;;;;;;5096541;28;20042;-58
2022/03/31 08:48:57;;;;;;;94.05;46.25;;;17.20;99.90;;;;;;5096653;28;20051;-58
2022/03/31 08:51:24;;;;;;;108.45;48.15;;;16.80;99.90;;;;;;5096525;28;20481;-58
2022/03/31 08:53:50;;;;;;;103.70;47.75;;;16.80;99.90;;;;;;5099565;28;20023;-58
2022/03/31 08:56:16;;;;;;;72.25;33.00;;;16.70;99.90;;;;;;5095176;28;20028;-58
2022/03/31 08:58:44;;;;;;;77.28;36.75;;;16.70;99.90;;;;;;5096845;28;20047;-58
2022/03/31 09:01:12;;;;;;;84.00;40.70;;;16.60;99.90;;;;;;5098772;28;20197;-58
2022/03/31 09:03:39;;;;;;;99.68;47.67;;;16.60;99.90;;;;;;5088299;28;20031;-58
2022/03/31 09:06:07;;;;;;;101.28;50.75;;;16.50;99.90;;;;;;5091395;28;20170;-58
2022/03/31 09:08:36;;;;;;;38.55;21.73;;;16.50;99.90;;;;;;5086136;28;20820;-58
2022/03/31 09:11:03;;;;;;;13.93;4.55;;;16.50;99.90;;;;;;5087247;28;20387;-58
2022/03/31 09:13:38;;;;;;;27.52;10.38;;;16.60;99.90;;;;;;5085521;28;20470;-58
2022/03/31 09:16:13;;;;;;;42.08;15.70;;;16.70;99.90;;;;;;5102091;28;20043;-58
2022/03/31 09:18:40;;;;;;;41.60;15.30;;;16.80;99.90;;;;;;5107770;28;20462;-58
2022/03/31 09:21:10;;;;;;;9.32;4.05;;;16.90;99.90;;;;;;5096595;28;20070;-58
2022/03/31 09:23:41;;;;;;;15.40;2.83;;;17.00;99.90;;;;;;5095095;28;20430;-58
2022/03/31 09:26:12;;;;;;;14.50;3.03;;;17.10;99.90;;;;;;5095946;28;20257;-58
2022/03/31 09:28:44;;;;;;;17.52;3.03;;;17.30;99.90;;;;;;5095804;28;20500;-58
2022/03/31 09:31:11;;;;;;;16.63;2.38;;;17.40;99.90;;;;;;5095034;28;20020;-58
2022/03/31 09:33:39;;;;;;;9.07;1.85;;;17.50;99.50;;;;;;5083291;28;20028;-58
2022/03/31 09:36:12;;;;;;;9.73;2.13;;;17.60;98.50;;;;;;5084182;28;20028;-58
2022/03/31 09:38:43;;;;;;;3.38;1.48;;;17.70;98.70;;;;;;5098481;28;20393;-58
2022/03/31 09:41:19;;;;;;;6.93;1.27;;;17.80;98.70;;;;;;5095330;28;20024;-58
2022/03/31 09:43:47;;;;;;;2.65;0.82;;;17.80;98.60;;;;;;5102520;28;20016;-58
2022/03/31 09:46:25;;;;;;;7.32;1.10;;;17.90;98.00;;;;;;5097776;28;20092;-58
2022/03/31 09:48:52;;;;;;;3.88;1.60;;;18.00;98.50;;;;;;5109678;28;20020;-58
2022/03/31 09:51:20;;;;;;;11.10;2.38;;;18.00;98.90;;;;;;5103285;28;20024;-58
2022/03/31 09:53:48;;;;;;;22.25;2.90;;;18.00;99.40;;;;;;5086786;28;20032;-58
2022/03/31 09:56:22;;;;;;;14.73;1.77;;;18.10;99.90;;;;;;5090968;28;20059;-58
2022/03/31 09:58:49;;;;;;;5.28;1.48;;;18.10;98.30;;;;;;5100593;28;20051;-58
2022/03/31 10:01:17;;;;;;;10.48;1.30;;;18.10;99.10;;;;;;5107249;28;20024;-58
2022/03/31 10:03:43;;;;;;;5.97;1.13;;;18.10;97.90;;;;;;5094933;28;20566;-58
2022/03/31 10:06:11;;;;;;;10.10;1.55;;;18.20;96.60;;;;;;5093574;28;20027;-58
2022/03/31 10:08:39;;;;;;;8.70;1.45;;;18.20;96.40;;;;;;5087081;28;20478;-58
2022/03/31 10:11:10;;;;;;;6.43;2.00;;;18.30;95.50;;;;;;5091875;28;20073;-58
2022/03/31 10:13:51;;;;;;;1.48;0.68;;;18.40;96.30;;;;;;5078292;28;20029;-58
2022/03/31 10:16:25;;;;;;;4.57;1.30;;;18.40;95.20;;;;;;5095929;28;20038;-59
2022/03/31 10:18:52;;;;;;;19.63;3.10;;;18.30;95.90;;;;;;5096185;28;20028;-59
2022/03/31 10:21:30;;;;;;;16.13;2.20;;;18.40;96.40;;;;;;5085930;28;20111;-58
2022/03/31 10:26:44;;;;;;;4.70;0.75;;;18.40;96.90;;;;;;5074810;28;20030;-59
2022/03/31 10:29:13;;;;;;;12.93;3.03;;;18.40;95.30;;;;;;5091061;28;20048;-59
2022/03/31 10:31:43;;;;;;;12.27;1.60;;;18.50;95.60;;;;;;5091526;28;20012;-59
2022/03/31 10:34:11;;;;;;;1.98;0.82;;;18.40;95.30;;;;;;5091601;28;20056;-59
2022/03/31 10:36:47;;;;;;;15.07;1.92;;;18.40;94.20;;;;;;5081580;28;20044;-59
2022/03/31 10:39:31;;;;;;;10.25;1.80;;;18.40;94.90;;;;;;5084542;28;20404;-59
2022/03/31 10:42:07;;;;;;;4.78;0.65;;;18.40;95.40;;;;;;5094086;28;20028;-59
2022/03/31 10:44:33;;;;;;;7.55;1.20;;;18.40;93.30;;;;;;5086609;28;20063;-59
2022/03/31 10:47:09;;;;;;;10.70;1.95;;;18.40;94.10;;;;;;5082764;28;20025;-58
2022/03/31 10:49:50;;;;;;;10.10;1.77;;;18.50;93.90;;;;;;5085122;28;20411;-58
2022/03/31 10:52:19;;;;;;;7.05;0.85;;;18.60;93.90;;;;;;5086020;28;20529;-58
2022/03/31 10:54:46;;;;;;;2.22;0.80;;;18.50;93.70;;;;;;5083256;28;20093;-58
2022/03/31 10:57:17;;;;;;;3.33;0.95;;;18.50;94.20;;;;;;5087376;28;20024;-59
2022/03/31 10:59:46;;;;;;;4.90;1.10;;;18.60;93.40;;;;;;5083388;28;20294;-59
2022/03/31 11:02:19;;;;;;;8.55;2.00;;;18.70;93.70;;;;;;5088612;28;20032;-58
2022/03/31 11:04:50;;;;;;;3.63;1.30;;;18.80;94.10;;;;;;5086154;28;20035;-59
2022/03/31 11:07:18;;;;;;;7.35;1.75;;;19.00;93.40;;;;;;5084915;28;20028;-59
2022/03/31 11:09:45;;;;;;;7.15;1.55;;;19.00;92.50;;;;;;5093096;28;20020;-58
2022/03/31 11:12:28;;;;;;;8.20;1.75;;;19.20;93.00;;;;;;5094808;28;20016;-58
2022/03/31 11:14:59;;;;;;;6.63;1.15;;;19.30;92.50;;;;;;5094654;28;20124;-58
2022/03/31 11:17:29;;;;;;;2.22;0.60;;;19.60;92.20;;;;;;5094612;28;20089;-58
2022/03/31 11:20:03;;;;;;;4.28;0.88;;;19.70;91.40;;;;;;5090989;28;20055;-58
2022/03/31 11:22:30;;;;;;;4.40;1.10;;;19.90;91.60;;;;;;5091962;28;20040;-59
2022/03/31 11:25:11;;;;;;;7.60;2.15;;;20.30;90.00;;;;;;5092335;28;20580;-59
2022/03/31 11:27:38;;;;;;;2.73;0.60;;;20.50;90.20;;;;;;5094086;28;20103;-59
2022/03/31 11:30:09;;;;;;;1.15;0.50;;;21.00;84.10;;;;;;5083538;28;20547;-59
2022/03/31 11:32:35;;;;;;;;;;;21.60;83.30;;;;;;5090436;28;20440;-59
2022/03/31 11:35:04;;;;;;;4.68;0.73;;;21.80;72.90;;;;;;5089658;28;20353;-59
2022/03/31 11:37:30;;;;;;;2.38;0.80;;;21.80;73.70;;;;;;5084478;28;20028;-59
2022/03/31 11:39:56;;;;;;;2.25;0.70;;;22.00;72.50;;;;;;5074368;28;20416;-59
2022/03/31 11:42:22;;;;;;;0.77;0.50;;;22.20;66.80;;;;;;5083105;28;20485;-59
2022/03/31 11:44:48;;;;;;;2.13;0.50;;;22.00;71.50;;;;;;5096990;28;20039;-59
2022/03/31 11:47:20;;;;;;;4.53;0.40;;;21.80;71.90;;;;;;5097251;28;20032;-59
2022/03/31 11:49:57;;;;;;;3.75;1.17;;;22.00;67.50;;;;;;5096428;28;20369;-59
2022/03/31 11:52:33;;;;;;;2.08;0.50;;;22.10;72.70;;;;;;5093743;28;20020;-59
2022/03/31 11:55:02;;;;;;;1.75;0.30;;;22.00;64.20;;;;;;5105479;28;20043;-59
2022/03/31 11:57:28;;;;;;;0.80;0.40;;;21.50;69.80;;;;;;5113729;28;20063;-59
2022/03/31 12:00:06;;;;;;;1.25;0.70;;;21.50;70.90;;;;;;5103965;28;20114;-59
2022/03/31 12:02:32;;;;;;;3.60;0.40;;;21.60;70.90;;;;;;5102947;28;20096;-59
2022/03/31 12:04:58;;;;;;;4.90;0.50;;;21.60;68.70;;;;;;5112373;28;20457;-59
2022/03/31 12:07:25;;;;;;;0.20;0.20;;;21.30;70.80;;;;;;5100360;28;20019;-59
2022/03/31 12:09:52;;;;;;;1.35;0.32;;;21.10;72.10;;;;;;5098520;28;20016;-59
2022/03/31 12:12:18;;;;;;;5.00;0.80;;;20.90;76.80;;;;;;5091806;28;20016;-59
2022/03/31 12:14:56;;;;;;;3.00;0.45;;;20.80;79.80;;;;;;5093171;28;20504;-59
2022/03/31 12:17:23;;;;;;;2.85;0.70;;;20.70;79.90;;;;;;5092579;28;20024;-59
2022/03/31 12:19:50;;;;;;;5.78;1.20;;;20.70;81.00;;;;;;5091459;28;20030;-59
2022/03/31 12:22:16;;;;;;;6.97;1.40;;;20.80;80.20;;;;;;5108543;28;20028;-59
2022/03/31 12:24:52;;;;;;;1.88;0.65;;;20.80;80.50;;;;;;5092174;28;20035;-59
2022/03/31 12:27:19;;;;;;;1.88;0.40;;;20.80;82.60;;;;;;5094055;28;20020;-58
2022/03/31 12:29:45;;;;;;;3.28;1.02;;;20.80;78.10;;;;;;5086662;28;20107;-59
2022/03/31 12:32:14;;;;;;;2.67;0.77;;;20.80;83.80;;;;;;5097750;28;20019;-58
2022/03/31 12:35:01;;;;;;;12.80;1.52;;;20.70;84.60;;;;;;5100188;28;20035;-58
2022/03/31 12:37:31;;;;;;;1.80;0.60;;;20.80;85.90;;;;;;5092770;28;20047;-58
2022/03/31 12:39:58;;;;;;;20.92;2.15;;;20.60;83.20;;;;;;5095704;28;20024;-58